Terminal Aerodrome Forecast
Issued by NWS

Home | Current Version | Previous Version | Text Only | Print | Product List | Glossary On
Versions: 1 2 3 4 5 6 7 8 9 10 11 12 13 14 15 16 17 18 19 20 21 22 23 24 25 26 27 28 29
000
FTUS43 KGRR 181448 AAC
TAFMKG
TAF AMD
KMKG 181448Z 1815/1912 26005KT 2SM BR OVC003
     FM181600 25010KT P6SM OVC015
     FM182200 23010KT P6SM BKN250
     FM190300 22008KT 1/2SM FG VV002=

USA.gov is the U.S. government's official web portal to all federal, state and local government web resources and services.